createdAt,value
2023-03-23T00:01:14.088Z,14.13
2023-03-23T00:06:19.646Z,14.12
2023-03-23T00:11:27.508Z,14.12
2023-03-23T00:16:39.414Z,14.19
2023-03-23T00:21:46.762Z,14.14
2023-03-23T00:26:55.326Z,14.14
2023-03-23T00:32:03.150Z,14.11
2023-03-23T00:37:11.640Z,14.11
2023-03-23T00:42:20.207Z,14.09
2023-03-23T00:47:28.308Z,14.11
2023-03-23T00:52:34.784Z,14.20
2023-03-23T00:57:39.980Z,14.18
2023-03-23T01:02:47.686Z,14.22
2023-03-23T01:07:54.571Z,14.21
2023-03-23T01:12:59.586Z,14.15
2023-03-23T01:18:08.256Z,14.18
2023-03-23T01:23:19.107Z,14.16
2023-03-23T01:28:24.094Z,14.14
2023-03-23T01:33:32.729Z,14.20
2023-03-23T01:38:38.737Z,14.21
2023-03-23T01:43:59.004Z,14.28
2023-03-23T01:49:14.030Z,14.34
2023-03-23T01:54:23.006Z,14.39
2023-03-23T01:59:29.612Z,14.37
2023-03-23T02:05:00.278Z,14.42
2023-03-23T02:10:11.093Z,14.41
2023-03-23T02:15:18.200Z,14.38
2023-03-23T02:20:42.255Z,14.43
2023-03-23T02:26:06.814Z,14.48
2023-03-23T02:31:31.791Z,14.48
2023-03-23T02:36:47.802Z,14.49
2023-03-23T02:41:58.895Z,14.52
2023-03-23T02:47:07.105Z,14.54
2023-03-23T02:52:18.868Z,14.53
2023-03-23T02:57:40.294Z,14.58
2023-03-23T03:02:53.681Z,14.60
2023-03-23T03:08:11.014Z,14.56
2023-03-23T03:13:23.994Z,14.56
2023-03-23T03:18:34.464Z,14.56
2023-03-23T03:23:45.459Z,14.51
2023-03-23T03:28:52.608Z,14.53
2023-03-23T03:34:02.325Z,14.20
2023-03-23T03:39:15.026Z,14.09
2023-03-23T03:44:25.015Z,14.01
2023-03-23T03:49:31.147Z,14.31
2023-03-23T03:54:39.024Z,14.48
2023-03-23T03:59:45.048Z,14.49
2023-03-23T04:05:17.878Z,14.57
2023-03-23T04:10:32.714Z,14.65
2023-03-23T04:15:40.868Z,14.73
2023-03-23T04:21:09.199Z,14.73
2023-03-23T04:26:17.093Z,14.74
2023-03-23T04:31:28.268Z,14.72
2023-03-23T04:36:56.420Z,14.69
2023-03-23T04:42:15.058Z,14.58
2023-03-23T04:47:43.440Z,14.40
2023-03-23T04:53:00.443Z,14.27
2023-03-23T04:58:08.901Z,14.07
2023-03-23T05:03:20.676Z,14.07
2023-03-23T05:08:40.074Z,14.24
2023-03-23T05:13:50.482Z,13.96
2023-03-23T05:18:58.491Z,14.02
2023-03-23T05:24:09.418Z,14.16
2023-03-23T05:29:17.943Z,14.13
2023-03-23T05:34:36.198Z,14.25
2023-03-23T05:39:43.662Z,14.28
2023-03-23T05:44:58.515Z,14.23
2023-03-23T05:50:10.264Z,14.04
2023-03-23T05:55:16.557Z,14.11
2023-03-23T06:00:31.600Z,14.22
2023-03-23T06:05:48.339Z,14.21
2023-03-23T06:10:56.660Z,14.28
2023-03-23T06:16:06.143Z,14.40
2023-03-23T06:21:30.522Z,14.46
2023-03-23T06:26:45.354Z,14.57
2023-03-23T06:32:01.878Z,14.73
2023-03-23T06:37:07.955Z,14.96
2023-03-23T06:42:36.209Z,14.85
2023-03-23T06:48:04.071Z,14.95
2023-03-23T06:53:10.258Z,14.87
2023-03-23T06:58:25.084Z,14.97
2023-03-23T07:03:37.809Z,15.01
2023-03-23T07:08:44.589Z,14.93
2023-03-23T07:13:55.237Z,15.22
2023-03-23T07:19:03.257Z,15.27
2023-03-23T07:24:10.048Z,15.33
2023-03-23T07:29:40.056Z,15.65
2023-03-23T07:34:53.846Z,16.01
2023-03-23T07:40:20.298Z,16.14
2023-03-23T07:45:30.835Z,15.91
2023-03-23T07:50:42.126Z,15.81
2023-03-23T07:55:50.055Z,15.61
2023-03-23T08:01:16.073Z,15.62
2023-03-23T08:06:37.471Z,15.61
2023-03-23T08:12:01.732Z,15.68
2023-03-23T08:17:45.829Z,15.77
2023-03-23T08:23:07.585Z,15.87
2023-03-23T08:28:26.981Z,15.64
2023-03-23T08:33:51.626Z,15.45
2023-03-23T08:39:12.186Z,15.44
2023-03-23T08:44:40.509Z,15.36
2023-03-23T08:50:19.742Z,15.50
2023-03-23T08:55:47.058Z,15.44
2023-03-23T09:01:01.511Z,15.23
2023-03-23T09:06:27.909Z,15.34
2023-03-23T09:11:37.610Z,15.21
2023-03-23T09:16:42.554Z,15.23
2023-03-23T09:21:48.188Z,15.22
2023-03-23T09:26:55.982Z,15.19
2023-03-23T09:32:02.344Z,15.13
2023-03-23T09:37:08.645Z,14.96
2023-03-23T09:42:32.057Z,14.92
2023-03-23T09:47:46.785Z,14.79
2023-03-23T09:53:02.441Z,14.61
2023-03-23T09:58:17.340Z,14.65
2023-03-23T10:03:26.621Z,14.51
2023-03-23T10:08:37.802Z,14.74
2023-03-23T10:14:06.119Z,15.01
2023-03-23T10:19:22.228Z,15.25
2023-03-23T10:24:39.091Z,15.48
2023-03-23T10:29:52.490Z,15.44
2023-03-23T10:35:02.695Z,15.75
2023-03-23T10:40:20.130Z,16.14
2023-03-23T10:45:34.038Z,15.93
2023-03-23T10:50:41.327Z,15.88
2023-03-23T10:55:50.202Z,16.06
2023-03-23T11:00:59.765Z,16.03
2023-03-23T11:06:07.762Z,16.25
2023-03-23T11:11:20.355Z,16.09
2023-03-23T11:16:35.587Z,16.21
2023-03-23T11:21:43.577Z,16.17
2023-03-23T11:26:58.518Z,16.16
2023-03-23T11:32:13.555Z,15.88
2023-03-23T11:37:26.466Z,15.86
2023-03-23T11:42:44.392Z,15.77
2023-03-23T11:48:02.272Z,15.74
2023-03-23T11:53:34.220Z,15.59
2023-03-23T11:58:42.391Z,15.61
2023-03-23T12:04:07.637Z,15.38
2023-03-23T12:09:26.077Z,15.19
2023-03-23T12:14:42.314Z,15.45
2023-03-23T12:20:11.605Z,15.19
2023-03-23T12:25:34.838Z,14.88
2023-03-23T12:30:51.637Z,14.79
2023-03-23T12:36:16.930Z,14.90
2023-03-23T12:41:33.590Z,15.18
2023-03-23T12:47:05.172Z,15.36
2023-03-23T12:52:29.546Z,15.49
2023-03-23T12:57:42.408Z,15.63
2023-03-23T13:03:02.060Z,15.87
2023-03-23T13:08:18.316Z,15.51
2023-03-23T13:13:30.000Z,15.63
2023-03-23T13:18:45.849Z,15.75
2023-03-23T13:23:58.648Z,15.82
2023-03-23T13:29:05.978Z,15.68
2023-03-23T13:34:21.679Z,16.01
2023-03-23T13:39:31.932Z,15.95
2023-03-23T13:44:58.687Z,16.09
2023-03-23T13:50:06.717Z,16.18
2023-03-23T13:55:45.254Z,16.31
2023-03-23T14:00:54.765Z,16.20
2023-03-23T14:06:11.386Z,16.24
2023-03-23T14:11:43.351Z,16.14
2023-03-23T14:16:53.552Z,16.29
2023-03-23T14:22:00.279Z,16.71
2023-03-23T14:27:19.545Z,16.58
2023-03-23T14:32:27.491Z,16.64
2023-03-23T14:37:37.651Z,16.47
2023-03-23T14:42:49.665Z,16.25
2023-03-23T14:47:58.596Z,16.47
2023-03-23T14:53:23.196Z,16.25
2023-03-23T14:58:31.669Z,16.24
2023-03-23T15:03:40.947Z,16.07
2023-03-23T15:08:47.818Z,16.21
2023-03-23T15:13:58.971Z,16.08
2023-03-23T15:19:06.656Z,16.09
2023-03-23T15:24:28.584Z,15.83
2023-03-23T15:29:36.715Z,15.93
2023-03-23T15:34:44.125Z,15.90
2023-03-23T15:39:50.380Z,15.93
2023-03-23T15:45:19.357Z,15.82
2023-03-23T15:50:37.929Z,15.70
2023-03-23T15:55:43.353Z,15.76
2023-03-23T16:00:55.138Z,15.67
2023-03-23T16:06:03.745Z,15.67
2023-03-23T16:11:09.425Z,15.62
2023-03-23T16:16:21.440Z,15.61
2023-03-23T16:21:27.182Z,15.63
2023-03-23T16:26:33.765Z,15.68
2023-03-23T16:31:43.625Z,15.54
2023-03-23T16:36:50.809Z,15.51
2023-03-23T16:41:56.153Z,15.47
2023-03-23T16:47:04.181Z,15.45
2023-03-23T16:52:12.161Z,15.45
2023-03-23T16:57:20.744Z,15.32
2023-03-23T17:02:28.634Z,15.41
2023-03-23T17:07:34.172Z,15.38
2023-03-23T17:12:39.847Z,15.21
2023-03-23T17:17:47.961Z,15.08
2023-03-23T17:22:53.478Z,15.14
2023-03-23T17:27:58.442Z,15.01
2023-03-23T17:33:14.876Z,14.95
2023-03-23T17:38:27.458Z,14.83
2023-03-23T17:43:35.763Z,14.76
2023-03-23T17:48:44.264Z,14.70
2023-03-23T17:53:49.347Z,14.58
2023-03-23T17:58:55.043Z,14.58
2023-03-23T18:04:03.806Z,14.47
2023-03-23T18:09:13.689Z,14.40
2023-03-23T18:14:18.822Z,14.39
2023-03-23T18:19:26.834Z,14.42
2023-03-23T18:24:31.944Z,14.44
2023-03-23T18:29:39.641Z,14.41
2023-03-23T18:34:47.634Z,14.46
2023-03-23T18:39:53.869Z,14.43
2023-03-23T18:45:00.131Z,14.35
2023-03-23T18:50:11.944Z,14.24
2023-03-23T18:55:17.566Z,14.07
2023-03-23T19:00:24.341Z,14.07
2023-03-23T19:05:32.596Z,14.00
2023-03-23T19:10:40.659Z,13.89
2023-03-23T19:15:46.550Z,13.78
2023-03-23T19:21:13.758Z,13.64
2023-03-23T19:26:27.913Z,13.73
2023-03-23T19:31:33.400Z,13.59
2023-03-23T19:36:41.800Z,13.76
2023-03-23T19:41:47.142Z,13.83
2023-03-23T19:46:54.850Z,13.78
2023-03-23T19:52:07.251Z,13.77
2023-03-23T19:57:15.705Z,13.79
2023-03-23T20:02:24.705Z,13.71
2023-03-23T20:07:32.603Z,13.71
2023-03-23T20:12:37.654Z,13.66
2023-03-23T20:17:44.101Z,13.76
2023-03-23T20:22:55.178Z,13.72
2023-03-23T20:28:02.133Z,13.68
2023-03-23T20:33:09.641Z,13.64
2023-03-23T20:38:18.590Z,13.68
2023-03-23T20:43:25.125Z,13.65
2023-03-23T20:48:32.448Z,13.78
2023-03-23T20:53:43.090Z,13.97
2023-03-23T20:58:51.276Z,13.88
2023-03-23T21:03:58.012Z,13.90
2023-03-23T21:09:07.013Z,13.92
2023-03-23T21:14:12.789Z,13.87
2023-03-23T21:19:19.563Z,13.95
2023-03-23T21:24:29.538Z,13.84
2023-03-23T21:29:34.761Z,13.83
2023-03-23T21:34:43.206Z,13.84
2023-03-23T21:39:52.095Z,13.82
2023-03-23T21:45:02.777Z,13.91
2023-03-23T21:50:12.014Z,13.95
2023-03-23T21:55:23.701Z,13.87
2023-03-23T22:00:29.874Z,13.90
2023-03-23T22:05:38.130Z,13.84
2023-03-23T22:11:01.146Z,13.90
2023-03-23T22:16:08.531Z,13.85
2023-03-23T22:21:14.846Z,13.84
2023-03-23T22:26:30.217Z,13.83
2023-03-23T22:31:37.671Z,13.84
2023-03-23T22:36:43.314Z,13.88
2023-03-23T22:41:51.235Z,13.93
2023-03-23T22:46:56.883Z,13.87
2023-03-23T22:52:02.188Z,13.96
2023-03-23T22:57:12.076Z,14.01
2023-03-23T23:02:17.326Z,13.99
2023-03-23T23:07:22.628Z,14.02
2023-03-23T23:12:35.463Z,14.03
2023-03-23T23:17:40.632Z,14.02
2023-03-23T23:22:47.260Z,13.93
2023-03-23T23:27:55.866Z,13.96
2023-03-23T23:33:02.085Z,13.89
2023-03-23T23:38:07.538Z,13.82
2023-03-23T23:43:19.852Z,13.72
2023-03-23T23:48:24.953Z,13.46
2023-03-23T23:53:33.119Z,13.32
2023-03-23T23:58:42.009Z,13.33
